createdAt,value
2023-05-02T04:00:58.015Z,15.10
2023-05-02T04:05:57.654Z,14.90
2023-05-02T04:10:56.670Z,14.80
2023-05-02T04:13:24.456Z,14.90
2023-05-02T04:15:52.225Z,14.80
2023-05-02T04:18:21.423Z,14.90
2023-05-02T04:20:49.172Z,14.90
2023-05-02T04:23:20.127Z,14.90
2023-05-02T04:25:53.537Z,14.80
2023-05-02T04:28:21.753Z,14.80
2023-05-02T04:30:49.816Z,14.80
2023-05-02T04:33:18.398Z,14.90
2023-05-02T04:35:47.609Z,14.90
2023-05-02T04:38:15.650Z,14.90
2023-05-02T04:40:43.617Z,14.90
2023-05-02T04:43:11.354Z,14.80
2023-05-02T04:45:39.097Z,14.80
2023-05-02T04:48:07.230Z,14.80
2023-05-02T04:50:35.021Z,14.80
2023-05-02T04:53:04.115Z,14.70
2023-05-02T04:55:32.096Z,14.70
2023-05-02T04:57:59.868Z,14.70
2023-05-02T05:00:27.665Z,14.80
2023-05-02T05:02:55.562Z,14.80
2023-05-02T05:05:23.383Z,14.70
2023-05-02T05:07:52.594Z,14.70
2023-05-02T05:10:21.753Z,14.60
2023-05-02T05:12:49.975Z,14.60
2023-05-02T05:15:18.586Z,14.50
2023-05-02T05:17:46.555Z,14.50
2023-05-02T05:20:14.918Z,14.50
2023-05-02T05:22:43.443Z,14.40
2023-05-02T05:25:12.044Z,14.30
2023-05-02T05:27:41.224Z,14.30
2023-05-02T05:30:09.872Z,14.30
2023-05-02T05:32:37.717Z,14.30
2023-05-02T05:35:06.336Z,14.40
2023-05-02T05:37:34.299Z,14.40
2023-05-02T05:40:02.528Z,14.30
2023-05-02T05:42:30.711Z,14.30
2023-05-02T05:44:59.848Z,14.30
2023-05-02T05:47:27.810Z,14.20
2023-05-02T05:49:55.986Z,14.20
2023-05-02T05:52:23.971Z,14.10
2023-05-02T05:54:55.501Z,14.30
2023-05-02T05:57:23.731Z,14.30
2023-05-02T05:59:51.992Z,14.30
2023-05-02T06:02:21.274Z,14.30
2023-05-02T06:04:49.185Z,14.40
2023-05-02T06:07:17.007Z,14.40
2023-05-02T06:09:44.736Z,14.40
2023-05-02T06:12:12.488Z,14.40
2023-05-02T06:14:40.250Z,14.50
2023-05-02T06:17:08.229Z,14.50
2023-05-02T06:19:37.365Z,14.50
2023-05-02T06:22:05.102Z,14.50
2023-05-02T06:24:32.902Z,14.50
2023-05-02T06:27:01.088Z,14.50
2023-05-02T06:29:28.932Z,14.50
2023-05-02T06:31:58.454Z,14.40
2023-05-02T06:34:26.664Z,14.60
2023-05-02T06:36:57.317Z,14.60
2023-05-02T06:39:25.272Z,14.70
2023-05-02T06:41:57.272Z,14.70
2023-05-02T06:44:25.139Z,14.70
2023-05-02T06:49:21.273Z,14.80
2023-05-02T06:51:49.037Z,14.90
2023-05-02T06:56:46.390Z,15.00
2023-05-02T06:59:16.527Z,15.10
2023-05-02T07:01:44.938Z,15.10
2023-05-02T07:06:41.476Z,15.20
2023-05-02T07:09:09.475Z,15.20
2023-05-02T07:11:38.777Z,15.20
2023-05-02T07:14:06.658Z,15.20
2023-05-02T07:16:34.550Z,15.20
2023-05-02T07:19:04.456Z,15.30
2023-05-02T07:21:33.015Z,15.30
2023-05-02T07:24:00.835Z,15.30
2023-05-02T07:26:29.546Z,15.40
2023-05-02T07:28:58.655Z,15.40
2023-05-02T07:31:26.452Z,15.50
2023-05-02T07:33:54.371Z,15.60
2023-05-02T07:36:22.140Z,15.60
2023-05-02T07:38:50.371Z,15.60
2023-05-02T07:41:19.677Z,15.50
2023-05-02T07:43:47.486Z,15.50
2023-05-02T07:46:16.653Z,15.50
2023-05-02T07:48:44.559Z,15.50
2023-05-02T07:51:12.666Z,15.50
2023-05-02T07:53:40.420Z,15.50
2023-05-02T07:56:09.428Z,15.50
2023-05-02T07:58:37.477Z,15.50
2023-05-02T08:01:05.681Z,15.50
2023-05-02T08:03:35.100Z,15.50
2023-05-02T08:06:03.933Z,15.40
2023-05-02T08:08:31.728Z,15.30
2023-05-02T08:13:28.469Z,15.30
2023-05-02T08:15:57.917Z,15.30
2023-05-02T08:18:25.869Z,15.30
2023-05-02T08:20:56.803Z,15.30
2023-05-02T08:23:24.564Z,15.30
2023-05-02T08:25:52.624Z,15.40
2023-05-02T08:28:20.593Z,15.50
2023-05-02T08:30:48.965Z,15.60
2023-05-02T08:33:16.883Z,15.60
2023-05-02T08:35:44.693Z,15.60
2023-05-02T08:38:14.315Z,15.60
2023-05-02T08:40:43.413Z,15.60
2023-05-02T08:43:12.942Z,15.60
2023-05-02T08:45:42.199Z,15.70
2023-05-02T08:48:12.738Z,15.60
2023-05-02T08:50:42.353Z,15.60
2023-05-02T08:53:11.184Z,15.50
2023-05-02T08:55:42.137Z,15.50
2023-05-02T08:58:11.365Z,15.40
2023-05-02T09:00:41.201Z,15.40
2023-05-02T09:03:18.044Z,15.40
2023-05-02T09:05:52.560Z,15.50
2023-05-02T09:08:23.681Z,15.40
2023-05-02T09:13:31.324Z,15.40
2023-05-02T09:16:00.539Z,15.40
2023-05-02T09:18:33.266Z,15.40
2023-05-02T09:21:02.833Z,15.40
2023-05-02T09:23:35.014Z,15.40
2023-05-02T09:26:12.635Z,15.50
2023-05-02T09:28:42.277Z,15.50
2023-05-02T09:31:11.192Z,15.60
2023-05-02T09:33:39.987Z,15.70
2023-05-02T09:36:08.989Z,15.90
2023-05-02T09:38:36.889Z,16.00
2023-05-02T09:41:06.237Z,16.10
2023-05-02T09:43:34.137Z,16.10
2023-05-02T09:46:04.606Z,16.20
2023-05-02T09:48:34.764Z,16.20
2023-05-02T09:51:04.408Z,16.30
2023-05-02T09:53:32.219Z,16.40
2023-05-02T09:56:04.678Z,16.50
2023-05-02T09:58:33.774Z,16.40
2023-05-02T10:16:07.396Z,17.30
2023-05-02T10:18:49.543Z,17.30
2023-05-02T10:21:22.340Z,17.30
2023-05-02T10:26:23.180Z,17.10
2023-05-02T10:31:20.563Z,17.10
2023-05-02T10:33:51.916Z,17.10
2023-05-02T10:36:23.051Z,17.10
2023-05-02T10:38:52.363Z,17.10
2023-05-02T10:41:23.403Z,17.20
2023-05-02T10:43:53.693Z,17.30
2023-05-02T10:46:34.686Z,17.30
2023-05-02T10:49:04.747Z,17.20
2023-05-02T10:51:33.639Z,17.10
2023-05-02T10:54:20.646Z,17.10
2023-05-02T10:57:08.502Z,17.10
2023-05-02T10:59:39.934Z,17.00
2023-05-02T11:02:46.597Z,17.10
2023-05-02T11:05:14.616Z,17.40
2023-05-02T11:10:27.382Z,17.70
2023-05-02T11:12:56.678Z,17.90
2023-05-02T11:15:57.786Z,17.90
2023-05-02T11:18:25.570Z,17.90
2023-05-02T11:20:56.590Z,17.80
2023-05-02T11:23:26.720Z,17.70
2023-05-02T11:25:57.041Z,17.70
2023-05-02T11:28:48.061Z,17.80
2023-05-02T11:32:05.071Z,18.00
2023-05-02T11:34:48.364Z,18.30
2023-05-02T11:37:16.786Z,18.40
2023-05-02T11:39:45.746Z,18.50
2023-05-02T11:42:29.541Z,18.60
2023-05-02T11:44:58.602Z,18.50
2023-05-02T11:47:29.401Z,18.40
2023-05-02T11:50:00.276Z,18.30
2023-05-02T11:54:56.889Z,18.40
2023-05-02T11:57:25.353Z,18.30
2023-05-02T12:04:51.335Z,18.00
2023-05-02T12:07:20.579Z,18.10
2023-05-02T12:09:55.397Z,18.10
2023-05-02T12:12:23.564Z,18.10
2023-05-02T12:14:52.710Z,18.00
2023-05-02T12:17:21.461Z,17.90
2023-05-02T12:19:49.997Z,17.90
2023-05-02T12:22:18.565Z,17.90
2023-05-02T12:24:49.202Z,17.80
2023-05-02T12:27:17.983Z,17.80
2023-05-02T12:29:47.666Z,17.80
2023-05-02T12:32:16.521Z,17.90
2023-05-02T12:34:44.648Z,17.90
2023-05-02T12:37:25.877Z,18.00
2023-05-02T12:39:56.621Z,18.10
2023-05-02T12:42:28.701Z,18.30
2023-05-02T12:47:27.519Z,18.70
2023-05-02T12:53:00.225Z,19.00
2023-05-02T13:35:15.803Z,17.80
2023-05-02T13:37:43.826Z,17.80
2023-05-02T13:42:42.046Z,17.70
2023-05-02T13:45:10.647Z,17.70
2023-05-02T13:47:41.545Z,17.70
2023-05-02T13:50:10.394Z,17.60
2023-05-02T13:55:07.348Z,17.70
2023-05-02T13:57:35.159Z,17.70
2023-05-02T14:00:04.241Z,17.70
2023-05-02T14:02:32.538Z,17.70
2023-05-02T14:05:01.681Z,17.80
2023-05-02T14:07:29.526Z,17.90
2023-05-02T14:12:26.003Z,18.00
2023-05-02T14:17:24.988Z,18.20
2023-05-02T14:19:52.887Z,18.30
2023-05-02T14:22:22.062Z,18.30
2023-05-02T14:24:50.080Z,18.30
2023-05-02T14:27:18.879Z,18.20
2023-05-02T14:29:46.743Z,18.10
2023-05-02T14:32:15.183Z,18.10
2023-05-02T14:34:42.986Z,18.10
2023-05-02T14:37:10.790Z,18.30
2023-05-02T14:39:40.287Z,18.40
2023-05-02T14:42:08.321Z,18.50
2023-05-02T14:47:04.553Z,18.40
2023-05-02T14:52:00.667Z,18.20
2023-05-02T14:57:00.079Z,17.90
2023-05-02T14:59:30.925Z,17.90
2023-05-02T15:01:59.052Z,17.90
2023-05-02T15:04:27.756Z,17.90
2023-05-02T15:06:56.935Z,17.90
2023-05-02T15:09:26.718Z,17.90
2023-05-02T15:11:54.548Z,17.90
2023-05-02T15:14:23.917Z,17.80
2023-05-02T15:16:51.888Z,17.80
2023-05-02T15:19:19.982Z,17.70
2023-05-02T15:21:48.855Z,17.70
2023-05-02T15:24:16.886Z,17.60
2023-05-02T15:26:45.138Z,17.60
2023-05-02T15:29:13.167Z,17.50
2023-05-02T15:31:42.516Z,17.50
2023-05-02T15:34:10.559Z,17.50
2023-05-02T15:36:38.524Z,17.50
2023-05-02T15:39:06.728Z,17.70
2023-05-02T15:41:34.675Z,17.80
2023-05-02T15:44:02.830Z,17.90
2023-05-02T15:46:30.783Z,18.00
2023-05-02T15:49:00.114Z,18.10
2023-05-02T15:51:28.099Z,18.30
2023-05-02T15:53:56.375Z,18.50
2023-05-02T15:56:24.240Z,18.70
2023-05-02T15:58:52.170Z,18.80
2023-05-02T16:01:21.010Z,19.00
2023-05-02T16:06:18.804Z,19.30
2023-05-02T16:08:46.728Z,19.50
2023-05-02T16:11:14.625Z,19.60
2023-05-02T16:13:42.662Z,19.70
2023-05-02T16:18:38.971Z,20.20
2023-05-02T16:21:06.837Z,20.30
2023-05-02T16:23:36.451Z,20.60
2023-05-02T16:26:04.562Z,20.60
2023-05-02T16:31:06.358Z,20.80
2023-05-02T16:33:34.326Z,20.90
2023-05-02T16:36:02.842Z,21.00
2023-05-02T16:38:30.832Z,21.20
2023-05-02T16:46:03.232Z,21.30
2023-05-02T16:48:31.248Z,21.30
2023-05-02T16:51:01.112Z,21.40
2023-05-02T16:53:30.543Z,21.40
2023-05-02T17:23:29.529Z,21.40
2023-05-02T17:25:59.065Z,21.40
2023-05-02T17:28:27.010Z,21.40
2023-05-02T17:30:56.076Z,21.20
2023-05-02T17:35:54.883Z,20.90
2023-05-02T17:38:22.697Z,21.00
2023-05-02T17:40:50.653Z,21.10
2023-05-02T17:43:19.923Z,20.70
2023-05-02T17:45:47.777Z,21.00
2023-05-02T17:48:15.682Z,21.00
2023-05-02T17:50:44.334Z,20.90
2023-05-02T17:53:12.543Z,20.70
2023-05-02T17:55:40.379Z,20.00
2023-05-02T17:58:08.341Z,19.30
2023-05-02T18:00:43.541Z,19.30
2023-05-02T18:08:08.559Z,18.30
2023-05-02T18:10:39.674Z,18.30
2023-05-02T18:13:07.446Z,18.10
2023-05-02T18:15:35.363Z,17.70
2023-05-02T18:18:04.614Z,17.30
2023-05-02T18:20:32.529Z,17.20
2023-05-02T18:23:01.242Z,17.30
2023-05-02T18:25:29.077Z,17.30
2023-05-02T18:27:56.897Z,17.40
2023-05-02T18:32:52.865Z,16.80
2023-05-02T18:35:22.519Z,16.60
2023-05-02T18:37:50.312Z,16.60
2023-05-02T18:40:18.089Z,16.40
2023-05-02T18:42:45.842Z,16.30
2023-05-02T18:45:13.584Z,16.30
2023-05-02T18:47:41.534Z,16.20
2023-05-02T18:50:10.145Z,15.80
2023-05-02T18:55:08.347Z,15.30
2023-05-02T18:57:36.116Z,15.10
2023-05-02T19:00:06.184Z,14.80
2023-05-02T19:02:34.255Z,14.60
2023-05-02T19:05:02.361Z,14.50
2023-05-02T19:07:30.394Z,14.30
2023-05-02T19:09:59.810Z,14.20
2023-05-02T19:12:27.608Z,14.20
2023-05-02T19:14:55.465Z,14.10
2023-05-02T19:17:26.613Z,14.00
2023-05-02T19:19:56.306Z,13.90
2023-05-02T19:22:27.570Z,13.90
2023-05-02T19:24:55.968Z,13.90
2023-05-02T19:27:25.082Z,13.70
2023-05-02T19:29:54.239Z,13.70
2023-05-02T19:32:22.828Z,13.60
2023-05-02T19:34:50.705Z,13.50
2023-05-02T19:39:47.231Z,13.40
2023-05-02T19:42:15.143Z,13.40
2023-05-02T19:47:16.755Z,13.40
2023-05-02T19:52:12.933Z,13.30
2023-05-02T19:57:09.117Z,13.30
2023-05-02T19:59:36.928Z,13.30
2023-05-02T20:02:06.633Z,13.30
2023-05-02T20:07:03.451Z,13.00
2023-05-02T20:09:31.447Z,12.90
2023-05-02T20:14:27.497Z,12.90
2023-05-02T20:17:01.276Z,12.80
2023-05-02T20:19:32.229Z,12.80
2023-05-02T20:22:00.117Z,12.80
2023-05-02T20:24:28.815Z,12.90
2023-05-02T20:26:56.791Z,12.80
2023-05-02T20:29:25.245Z,12.80
2023-05-02T20:31:54.530Z,12.70
2023-05-02T20:34:24.146Z,12.60
2023-05-02T20:36:53.367Z,12.60
2023-05-02T20:39:21.802Z,12.50
2023-05-02T20:41:50.136Z,12.40
2023-05-02T20:44:18.739Z,12.50
2023-05-02T20:46:46.542Z,12.30
2023-05-02T20:49:14.397Z,12.30
2023-05-02T20:51:42.226Z,12.30
2023-05-02T20:54:11.571Z,12.20
2023-05-02T20:56:39.542Z,12.20
2023-05-02T20:59:07.889Z,12.10
2023-05-02T21:01:35.813Z,12.00
2023-05-02T21:06:32.637Z,11.90
2023-05-02T21:09:01.837Z,11.90
2023-05-02T21:11:31.302Z,11.80
2023-05-02T21:13:59.055Z,11.80
2023-05-02T21:16:26.906Z,11.80
2023-05-02T21:18:54.892Z,11.80
2023-05-02T21:21:24.003Z,11.70
2023-05-02T21:23:51.831Z,11.60
2023-05-02T21:26:19.694Z,11.60
2023-05-02T21:33:45.543Z,11.50
2023-05-02T21:36:13.378Z,11.50
2023-05-02T21:38:41.257Z,11.50
2023-05-02T21:41:09.693Z,11.40
2023-05-02T21:43:40.880Z,11.40
2023-05-02T21:46:11.842Z,11.30
2023-05-02T21:48:39.815Z,11.30
2023-05-02T21:51:08.414Z,11.30
2023-05-02T21:53:36.410Z,11.20
2023-05-02T21:56:04.605Z,11.30
2023-05-02T21:58:32.350Z,11.20
2023-05-02T22:01:00.734Z,11.30
2023-05-02T22:03:30.855Z,11.30
2023-05-02T22:06:05.708Z,11.20
2023-05-02T22:08:34.671Z,11.10
2023-05-02T22:11:08.004Z,11.10
2023-05-02T22:13:35.989Z,10.90
2023-05-02T22:16:04.062Z,10.90
2023-05-02T22:18:33.375Z,10.90
2023-05-02T22:21:01.556Z,10.90
2023-05-02T22:23:31.104Z,10.90
2023-05-02T22:25:59.453Z,10.70
2023-05-02T22:28:27.256Z,10.70
2023-05-02T22:30:55.629Z,10.70
2023-05-02T22:33:23.491Z,10.70
2023-05-02T22:35:52.627Z,10.70
2023-05-02T22:38:21.079Z,10.60
2023-05-02T22:40:48.846Z,10.60
2023-05-02T22:43:17.387Z,10.60
2023-05-02T22:45:45.148Z,10.50
2023-05-02T22:48:13.038Z,10.50
2023-05-02T22:50:43.049Z,10.50
2023-05-02T22:53:12.179Z,10.50
2023-05-02T22:55:40.088Z,10.50
2023-05-02T22:58:07.922Z,10.40
2023-05-02T23:00:36.479Z,10.40
2023-05-02T23:03:04.427Z,10.40
2023-05-02T23:05:32.371Z,10.40
2023-05-02T23:08:00.179Z,10.40
2023-05-02T23:12:57.471Z,10.30
2023-05-02T23:15:25.723Z,10.30
2023-05-02T23:17:53.559Z,10.20
2023-05-02T23:20:23.060Z,10.10
2023-05-02T23:22:51.184Z,10.10
2023-05-02T23:25:19.534Z,10.10
2023-05-02T23:27:48.752Z,10.00
2023-05-02T23:30:16.566Z,10.00
2023-05-02T23:32:44.607Z,10.00
2023-05-02T23:35:13.203Z,9.90
2023-05-02T23:37:41.883Z,9.90
2023-05-02T23:40:10.583Z,9.90
2023-05-02T23:42:40.111Z,9.90
2023-05-02T23:45:10.674Z,10.00
2023-05-02T23:47:39.148Z,9.90
2023-05-02T23:50:10.355Z,9.90
2023-05-02T23:52:38.200Z,9.90
2023-05-02T23:55:10.309Z,9.90
2023-05-02T23:57:38.983Z,9.80
